Time;durP1;ratioP1;P1;durP2;ratioP2;P2;SDS_P1;SDS_P2;PMS_P1;PMS_P2;Temp;Humidity;BMP_temperature;BMP_pressure;BME280_temperature;BME280_humidity;BME280_pressure;Samples;Min_cycle;Max_cycle;Signal;HPM_P1;HPM_P2
2023/03/31 00:00:45;;;;;;;1999.90;999.90;;;10.40;99.90;;;;;;5048945;28;20137;-70
2023/03/31 00:03:12;;;;;;;1999.90;999.90;;;10.40;99.90;;;;;;5048047;28;20412;-69
2023/03/31 00:05:38;;;;;;;1999.90;999.90;;;10.50;99.90;;;;;;5048260;28;20063;-70
2023/03/31 00:08:04;;;;;;;1999.90;999.90;;;10.50;99.90;;;;;;5062683;28;20048;-69
2023/03/31 00:10:32;;;;;;;1999.90;999.90;;;10.50;99.90;;;;;;5047133;28;20384;-69
2023/03/31 00:12:59;;;;;;;1999.90;999.90;;;10.50;99.90;;;;;;5066642;28;20040;-70
2023/03/31 00:15:26;;;;;;;1999.90;999.90;;;10.50;99.90;;;;;;5049463;28;20414;-70
2023/03/31 00:17:52;;;;;;;1999.90;999.90;;;10.60;99.90;;;;;;5044678;28;20036;-70
2023/03/31 00:20:18;;;;;;;1999.90;999.90;;;10.50;99.90;;;;;;5060732;28;20040;-70
2023/03/31 00:22:46;;;;;;;1999.90;999.90;;;10.50;99.90;;;;;;5059770;28;20381;-69
2023/03/31 00:25:13;;;;;;;1999.90;999.90;;;10.50;99.90;;;;;;5048811;28;20053;-69
2023/03/31 00:27:42;;;;;;;1999.90;999.90;;;10.40;99.90;;;;;;5046879;28;20052;-70
2023/03/31 00:30:10;;;;;;;1999.90;999.90;;;10.30;99.90;;;;;;5060884;28;20041;-70
2023/03/31 00:32:35;;;;;;;1999.90;999.90;;;10.20;99.90;;;;;;5046097;28;20074;-70
2023/03/31 00:35:01;;;;;;;1999.90;999.90;;;10.20;99.90;;;;;;5048025;28;20040;-70
2023/03/31 00:37:28;;;;;;;1999.90;999.90;;;10.20;99.90;;;;;;5047752;28;20069;-69
2023/03/31 00:39:55;;;;;;;1999.90;999.90;;;10.20;99.90;;;;;;5060352;28;20044;-70
2023/03/31 00:42:21;;;;;;;1999.90;999.90;;;10.10;99.90;;;;;;5060937;28;20063;-70
2023/03/31 00:45:12;;;;;;;1999.90;999.90;;;10.10;99.90;;;;;;5064259;28;20037;-69
2023/03/31 00:47:43;;;;;;;1999.90;999.90;;;10.00;99.90;;;;;;5062172;28;20048;-69
2023/03/31 00:50:25;;;;;;;1999.90;999.90;;;9.90;99.90;;;;;;5058577;28;20053;-69
2023/03/31 00:52:57;;;;;;;1999.90;999.90;;;9.90;99.90;;;;;;5059555;28;20420;-69
2023/03/31 00:55:31;;;;;;;1999.90;999.90;;;9.80;99.90;;;;;;5062097;28;20076;-69
2023/03/31 00:57:57;;;;;;;1999.90;999.90;;;9.80;99.90;;;;;;5061514;28;20037;-70
2023/03/31 01:00:23;;;;;;;1999.90;999.90;;;9.70;99.90;;;;;;5058109;28;20049;-70
2023/03/31 01:03:02;;;;;;;1999.90;999.90;;;9.70;99.90;;;;;;5061921;28;20047;-69
2023/03/31 01:05:46;;;;;;;1999.90;999.90;;;9.60;99.90;;;;;;5065312;28;20044;-69
2023/03/31 01:08:13;;;;;;;1999.90;999.90;;;9.60;99.90;;;;;;5043222;28;20147;-70
2023/03/31 01:10:44;;;;;;;1999.90;999.90;;;9.60;99.90;;;;;;5060417;28;20305;-70
2023/03/31 01:13:11;;;;;;;1999.90;999.90;;;9.50;99.90;;;;;;5063655;28;20055;-70
2023/03/31 01:15:38;;;;;;;1999.90;999.90;;;9.50;99.90;;;;;;5046840;28;20056;-69
2023/03/31 01:18:09;;;;;;;1999.90;999.90;;;9.40;99.90;;;;;;5060821;28;20132;-70
2023/03/31 01:20:54;;;;;;;1999.90;999.90;;;9.40;99.90;;;;;;5059740;28;20399;-70
2023/03/31 01:23:44;;;;;;;1999.90;999.90;;;9.30;99.90;;;;;;5043844;28;20040;-70
2023/03/31 01:26:37;;;;;;;1999.90;999.90;;;9.30;99.90;;;;;;5062474;28;20440;-69
2023/03/31 01:29:12;;;;;;;1999.90;999.90;;;9.30;99.90;;;;;;5061498;28;20114;-69
2023/03/31 01:31:56;;;;;;;;;;;9.30;99.90;;;;;;5060876;28;20554;-69
2023/03/31 01:34:51;;;;;;;1999.90;999.90;;;9.30;99.90;;;;;;5044954;28;19930;-70
2023/03/31 01:37:37;;;;;;;1999.90;999.90;;;9.20;99.90;;;;;;5062789;28;20045;-70
2023/03/31 01:40:32;;;;;;;1999.90;999.90;;;9.20;99.90;;;;;;5060949;28;20163;-70
2023/03/31 01:43:19;;;;;;;1999.90;999.90;;;9.20;99.90;;;;;;5062991;28;20048;-69
2023/03/31 01:45:56;;;;;;;1999.90;999.90;;;9.10;99.90;;;;;;5063444;28;20041;-70
2023/03/31 01:48:46;;;;;;;1999.90;999.90;;;9.10;99.90;;;;;;5060998;28;20378;-70
2023/03/31 01:51:34;;;;;;;1999.90;999.90;;;9.00;99.90;;;;;;5056242;28;20044;-70
2023/03/31 01:54:38;;;;;;;1999.90;999.90;;;9.00;99.90;;;;;;5061833;28;20123;-69
2023/03/31 01:57:21;;;;;;;1999.90;999.90;;;9.00;99.90;;;;;;5003773;28;20537;-69
2023/03/31 02:00:08;;;;;;;1999.90;999.90;;;8.90;99.90;;;;;;5005742;28;20057;-69
2023/03/31 02:02:50;;;;;;;1999.90;999.90;;;8.90;99.90;;;;;;4988909;28;20068;-70
2023/03/31 02:05:25;;;;;;;1999.90;999.90;;;8.90;99.90;;;;;;5004086;28;20053;-70
2023/03/31 02:08:14;;;;;;;1999.90;999.90;;;8.90;99.90;;;;;;4989666;28;20171;-69
2023/03/31 02:10:43;;;;;;;1999.90;999.90;;;8.90;99.90;;;;;;5004698;28;20506;-69
2023/03/31 02:13:11;;;;;;;1999.90;999.90;;;8.90;99.90;;;;;;5004394;28;20053;-69
2023/03/31 02:15:41;;;;;;;1999.90;999.90;;;8.90;99.90;;;;;;5021162;28;20172;-69
2023/03/31 02:18:11;;;;;;;1999.90;999.90;;;8.90;99.90;;;;;;4989232;28;20053;-70
2023/03/31 02:20:40;;;;;;;1999.90;999.90;;;8.90;99.90;;;;;;5006889;28;20073;-69
2023/03/31 02:23:09;;;;;;;1999.90;999.90;;;8.90;99.90;;;;;;5002625;28;20053;-69
2023/03/31 02:25:40;;;;;;;1999.90;999.90;;;9.00;99.90;;;;;;5001707;28;20050;-69
2023/03/31 02:28:14;;;;;;;1999.90;999.90;;;9.00;99.90;;;;;;5006455;28;20038;-69
2023/03/31 02:30:49;;;;;;;1999.90;999.90;;;9.00;99.90;;;;;;5005019;28;20140;-69
2023/03/31 02:33:15;;;;;;;1999.90;999.90;;;9.10;99.90;;;;;;5047668;28;20060;-69
2023/03/31 02:35:41;;;;;;;1999.90;999.90;;;9.20;99.90;;;;;;5065836;28;20074;-70
2023/03/31 02:38:07;;;;;;;1999.90;999.90;;;9.20;99.90;;;;;;5064980;28;20504;-69
2023/03/31 02:40:33;;;;;;;1999.90;999.90;;;9.20;99.90;;;;;;5062958;28;20037;-70
2023/03/31 02:42:59;;;;;;;1999.90;999.90;;;9.30;99.90;;;;;;5049609;28;20450;-70
2023/03/31 02:45:41;;;;;;;1999.90;999.90;;;9.30;99.90;;;;;;5048903;28;20044;-69
2023/03/31 02:48:16;;;;;;;1999.90;999.90;;;9.30;99.90;;;;;;5063361;28;20064;-70
2023/03/31 02:51:07;;;;;;;1999.90;999.90;;;9.30;99.90;;;;;;5047722;28;20048;-70
2023/03/31 02:54:00;;;;;;;1999.90;999.90;;;9.40;99.90;;;;;;5065406;28;20053;-69
2023/03/31 02:56:44;;;;;;;1999.90;999.90;;;9.40;99.90;;;;;;5049523;28;20408;-69
2023/03/31 02:59:47;;;;;;;1999.90;999.90;;;9.40;99.90;;;;;;5065399;28;20127;-69
2023/03/31 03:02:13;;;;;;;1999.90;999.90;;;9.40;99.90;;;;;;5047610;28;20251;-69
2023/03/31 03:05:12;;;;;;;1999.90;999.90;;;9.30;99.90;;;;;;5045737;28;20051;-69
2023/03/31 03:07:55;;;;;;;1999.90;999.90;;;9.30;99.90;;;;;;5047256;28;20041;-69
2023/03/31 03:10:41;;;;;;;1999.90;999.90;;;9.30;99.90;;;;;;5064642;28;20037;-69
2023/03/31 03:13:33;;;;;;;1999.90;999.90;;;9.20;99.90;;;;;;5079533;28;20080;-69
2023/03/31 03:16:05;;;;;;;1999.90;999.90;;;9.20;99.90;;;;;;5070183;28;20589;-69
2023/03/31 03:18:31;;;;;;;1999.90;999.90;;;9.30;99.90;;;;;;5063480;28;20037;-69
2023/03/31 03:20:56;;;;;;;1999.90;999.90;;;9.30;99.90;;;;;;5065899;28;20166;-69
2023/03/31 03:23:22;;;;;;;1999.90;999.90;;;9.30;99.90;;;;;;5064201;28;20091;-69
2023/03/31 03:25:48;;;;;;;1999.90;999.90;;;9.30;99.90;;;;;;5062588;28;20052;-69
2023/03/31 03:28:13;;;;;;;1999.90;999.90;;;9.30;99.90;;;;;;5047139;28;20048;-70
2023/03/31 03:30:39;;;;;;;1999.90;999.90;;;9.40;99.90;;;;;;5066049;28;20492;-69
2023/03/31 03:33:05;;;;;;;1999.90;999.90;;;9.40;99.90;;;;;;5047817;28;20059;-69
2023/03/31 03:35:32;;;;;;;1999.90;999.90;;;9.40;99.90;;;;;;5062384;28;20037;-69
2023/03/31 03:37:58;;;;;;;1999.90;999.90;;;9.40;99.90;;;;;;5064388;28;20037;-69
2023/03/31 03:40:24;;;;;;;1999.90;999.90;;;9.40;99.90;;;;;;5064422;28;20152;-69
2023/03/31 03:42:49;;;;;;;1999.90;999.90;;;9.40;99.90;;;;;;5048303;28;20035;-69
2023/03/31 03:45:15;;;;;;;1999.90;999.90;;;9.50;99.90;;;;;;5065054;28;20036;-69
2023/03/31 03:47:40;;;;;;;1999.90;999.90;;;9.50;99.90;;;;;;5062798;28;20044;-69
2023/03/31 03:50:07;;;;;;;1999.90;999.90;;;9.50;99.90;;;;;;5050071;28;20512;-69
2023/03/31 03:52:32;;;;;;;1999.90;999.90;;;9.50;99.90;;;;;;5048461;28;20033;-70
2023/03/31 03:54:58;;;;;;;1999.90;999.90;;;9.60;99.90;;;;;;5065083;28;20597;-69
2023/03/31 03:57:24;;;;;;;1999.90;999.90;;;9.60;99.90;;;;;;5064851;28;20046;-70
2023/03/31 03:59:49;;;;;;;1999.90;999.90;;;9.60;99.90;;;;;;5064256;28;20039;-69
2023/03/31 04:02:15;;;;;;;1999.90;999.90;;;9.70;99.90;;;;;;5047294;28;20344;-70
2023/03/31 04:04:40;;;;;;;1999.90;999.90;;;9.70;99.90;;;;;;5066003;28;20472;-69
2023/03/31 04:07:06;;;;;;;1999.90;999.90;;;9.70;99.90;;;;;;5062329;28;20044;-69
2023/03/31 04:09:31;;;;;;;1999.90;999.90;;;9.80;99.90;;;;;;5063037;28;20067;-69
2023/03/31 04:11:57;;;;;;;1999.90;999.90;;;9.80;99.90;;;;;;5061177;28;20079;-69
2023/03/31 04:14:24;;;;;;;1999.90;999.90;;;9.70;99.90;;;;;;5063380;28;20114;-69
2023/03/31 04:16:50;;;;;;;1999.90;999.90;;;9.70;99.90;;;;;;5063832;28;20441;-69
2023/03/31 04:19:20;;;;;;;1999.90;999.90;;;9.70;99.90;;;;;;5063998;28;20075;-69
2023/03/31 04:21:57;;;;;;;1999.90;999.90;;;9.70;99.90;;;;;;5062157;28;20048;-69
2023/03/31 04:24:29;;;;;;;1999.90;999.90;;;9.70;99.90;;;;;;5060397;28;20070;-69
2023/03/31 04:26:55;;;;;;;1999.90;999.90;;;9.70;99.90;;;;;;5062938;28;20110;-69
2023/03/31 04:29:25;;;;;;;1999.90;999.90;;;9.70;99.90;;;;;;5063155;28;20036;-69
2023/03/31 04:31:57;;;;;;;1999.90;999.90;;;9.70;99.90;;;;;;5060775;28;20048;-68
2023/03/31 04:34:25;;;;;;;1999.90;999.90;;;9.70;99.90;;;;;;5061306;28;20044;-69
2023/03/31 04:36:54;;;;;;;1999.90;999.90;;;9.70;99.90;;;;;;5063957;28;20051;-69
2023/03/31 04:39:29;;;;;;;1999.90;999.90;;;9.70;99.90;;;;;;5060302;28;20048;-69
2023/03/31 04:41:56;;;;;;;1999.90;999.90;;;9.70;99.90;;;;;;5049014;28;20483;-69
2023/03/31 04:44:22;;;;;;;1999.90;999.90;;;9.70;99.90;;;;;;5062212;28;20089;-69
2023/03/31 04:46:48;;;;;;;1999.90;999.90;;;9.70;99.90;;;;;;5042592;28;20036;-69
2023/03/31 04:49:14;;;;;;;1999.90;999.90;;;9.70;99.90;;;;;;5063202;28;20044;-70
2023/03/31 04:51:40;;;;;;;1999.90;999.90;;;9.70;99.90;;;;;;5042305;28;20453;-69
2023/03/31 04:54:06;;;;;;;1999.90;999.90;;;9.70;99.90;;;;;;5062112;28;20032;-69
2023/03/31 04:56:31;;;;;;;1999.90;999.90;;;9.70;99.90;;;;;;5044920;28;20090;-69
2023/03/31 04:58:57;;;;;;;1999.90;999.90;;;9.80;99.90;;;;;;5061126;28;20523;-69
2023/03/31 05:01:22;;;;;;;1999.90;999.90;;;9.80;99.90;;;;;;5063699;28;20045;-69
2023/03/31 05:03:48;;;;;;;1999.90;999.90;;;9.80;99.90;;;;;;5063974;28;20127;-69
2023/03/31 05:06:17;;;;;;;1999.90;999.90;;;9.80;99.90;;;;;;5061745;28;20062;-69
2023/03/31 05:08:43;;;;;;;1999.90;999.90;;;9.80;99.90;;;;;;5058803;28;20048;-69
2023/03/31 05:11:08;;;;;;;1999.90;999.90;;;9.90;99.90;;;;;;5063828;28;20036;-69
2023/03/31 05:13:34;;;;;;;1999.90;999.90;;;9.90;99.90;;;;;;5061816;28;20044;-69
2023/03/31 05:16:13;;;;;;;1999.90;999.90;;;9.90;99.90;;;;;;5062817;28;20050;-69
2023/03/31 05:18:39;;;;;;;1999.90;999.90;;;9.90;99.90;;;;;;5052421;28;20397;-69
2023/03/31 05:21:15;;;;;;;1999.90;999.90;;;9.90;99.90;;;;;;5061366;28;20040;-69
2023/03/31 05:23:41;;;;;;;1999.90;999.90;;;9.90;99.90;;;;;;5054050;28;20132;-69
2023/03/31 05:26:07;;;;;;;1999.90;999.90;;;9.90;99.90;;;;;;5063512;28;20143;-69
2023/03/31 05:28:34;;;;;;;1999.90;999.90;;;10.00;99.90;;;;;;5047656;28;20131;-69
2023/03/31 05:31:01;;;;;;;1999.90;999.90;;;10.00;99.90;;;;;;5046177;28;20048;-69
2023/03/31 05:33:27;;;;;;;1999.90;999.90;;;9.90;99.90;;;;;;5059783;28;20154;-69
2023/03/31 05:35:53;;;;;;;1999.90;999.90;;;9.90;99.90;;;;;;5061279;28;20040;-69
2023/03/31 05:38:20;;;;;;;1999.90;999.90;;;9.90;99.90;;;;;;5062366;28;20037;-69
2023/03/31 05:40:46;;;;;;;1999.90;999.90;;;9.90;99.90;;;;;;5046295;28;20044;-69
2023/03/31 05:43:12;;;;;;;1999.90;999.90;;;9.90;99.90;;;;;;5064245;28;20505;-69
2023/03/31 05:45:37;;;;;;;1999.90;999.90;;;9.90;99.90;;;;;;5062807;28;20123;-69
2023/03/31 05:48:04;;;;;;;1999.90;999.90;;;9.90;99.90;;;;;;5046433;28;20115;-69
2023/03/31 05:50:29;;;;;;;1999.90;999.90;;;9.90;99.90;;;;;;5058497;28;20032;-69
2023/03/31 05:52:55;;;;;;;1999.90;999.90;;;9.90;99.90;;;;;;5059626;28;20431;-69
2023/03/31 05:55:20;;;;;;;1999.90;999.90;;;10.00;99.90;;;;;;5076540;28;20090;-69
2023/03/31 05:57:46;;;;;;;1999.90;999.90;;;9.90;99.90;;;;;;5059575;28;20492;-69
2023/03/31 06:00:12;;;;;;;1999.90;999.90;;;9.90;99.90;;;;;;5060102;28;20121;-69
2023/03/31 06:02:39;;;;;;;1999.90;999.90;;;9.90;99.90;;;;;;5045748;28;20032;-69
2023/03/31 06:05:05;;;;;;;1999.90;999.90;;;9.90;99.90;;;;;;5059349;28;20519;-69
2023/03/31 06:07:31;;;;;;;1999.90;999.90;;;9.90;99.90;;;;;;5065784;28;20032;-69
2023/03/31 06:09:56;;;;;;;1999.90;999.90;;;9.90;99.90;;;;;;5052986;28;20553;-69
2023/03/31 06:12:22;;;;;;;1999.90;999.90;;;9.90;99.90;;;;;;5046205;28;20726;-69
2023/03/31 06:14:48;;;;;;;1999.90;999.90;;;9.90;99.90;;;;;;5061992;28;20040;-69
2023/03/31 06:17:13;;;;;;;1999.90;999.90;;;9.90;99.90;;;;;;5061421;28;20488;-69
2023/03/31 06:19:39;;;;;;;1999.90;999.90;;;9.90;99.90;;;;;;5044772;28;20045;-69
2023/03/31 06:22:05;;;;;;;1999.90;999.90;;;9.90;99.90;;;;;;5060640;28;20032;-69
2023/03/31 06:24:30;;;;;;;1999.90;999.90;;;9.90;99.90;;;;;;5046505;28;20044;-69
2023/03/31 06:26:56;;;;;;;1999.90;999.90;;;9.90;99.90;;;;;;5057610;28;20049;-69
2023/03/31 06:29:21;;;;;;;1999.90;999.90;;;9.90;99.90;;;;;;5065069;28;20048;-69
2023/03/31 06:31:47;;;;;;;1999.90;999.90;;;9.90;99.90;;;;;;5060154;28;20033;-69
2023/03/31 06:34:13;;;;;;;1999.90;999.90;;;9.90;99.90;;;;;;5062366;28;20541;-69
2023/03/31 06:36:38;;;;;;;1999.90;999.90;;;9.90;99.90;;;;;;5065854;28;20044;-69
2023/03/31 06:39:04;;;;;;;1999.90;999.90;;;9.90;99.90;;;;;;5065510;28;20032;-69
2023/03/31 06:41:29;;;;;;;1999.90;999.90;;;9.90;99.90;;;;;;5067156;28;20093;-69
2023/03/31 06:43:55;;;;;;;1999.90;999.90;;;9.90;99.90;;;;;;5064919;28;20117;-69
2023/03/31 06:46:21;;;;;;;1999.90;999.90;;;9.90;99.90;;;;;;5045211;28;20043;-69
2023/03/31 06:48:46;;;;;;;1999.90;999.90;;;9.90;99.90;;;;;;5056981;28;20044;-69
2023/03/31 06:51:12;;;;;;;1999.90;999.90;;;9.90;99.90;;;;;;5059126;28;20270;-69
2023/03/31 06:53:38;;;;;;;1999.90;999.90;;;9.90;99.90;;;;;;5046958;28;20044;-69
2023/03/31 06:56:05;;;;;;;1999.90;999.90;;;9.90;99.90;;;;;;5063237;28;20516;-69
2023/03/31 06:58:30;;;;;;;1999.90;999.90;;;9.90;99.90;;;;;;5063869;28;20044;-69
2023/03/31 07:00:56;;;;;;;1999.90;999.90;;;9.90;99.90;;;;;;5057376;28;20040;-69
2023/03/31 07:03:23;;;;;;;1999.90;999.90;;;9.90;99.90;;;;;;5047695;28;20045;-69
2023/03/31 07:05:50;;;;;;;1999.90;999.90;;;9.90;99.90;;;;;;5045603;28;20044;-69
2023/03/31 07:08:20;;;;;;;1999.90;999.90;;;9.90;99.90;;;;;;5067038;28;20042;-69
2023/03/31 07:10:47;;;;;;;1999.90;999.90;;;9.90;99.90;;;;;;5072813;28;20058;-69
2023/03/31 07:13:17;;;;;;;1999.90;999.90;;;9.90;99.90;;;;;;5042408;28;20059;-69
2023/03/31 07:15:45;;;;;;;1999.90;999.90;;;9.90;99.90;;;;;;5058504;28;20040;-70
2023/03/31 07:18:11;;;;;;;1999.90;999.90;;;9.90;99.90;;;;;;5054425;28;20159;-69
2023/03/31 07:20:37;;;;;;;1999.90;999.90;;;10.00;99.90;;;;;;5048326;28;20120;-69
2023/03/31 07:23:04;;;;;;;1999.90;999.90;;;9.90;99.90;;;;;;5059613;28;20043;-69
2023/03/31 07:25:30;;;;;;;1999.90;999.90;;;10.00;99.90;;;;;;5061850;28;20454;-69
2023/03/31 07:27:56;;;;;;;1999.90;999.90;;;10.00;99.90;;;;;;5061253;28;20054;-69
2023/03/31 07:30:23;;;;;;;1999.90;999.90;;;10.00;99.90;;;;;;5064000;28;20115;-70
2023/03/31 07:32:50;;;;;;;1999.90;999.90;;;10.00;99.90;;;;;;5056657;28;20036;-69
2023/03/31 07:35:16;;;;;;;1999.90;999.90;;;10.10;99.90;;;;;;5063526;28;20044;-69
2023/03/31 07:37:45;;;;;;;1999.90;999.90;;;10.10;99.90;;;;;;5063276;28;20064;-69
2023/03/31 07:40:14;;;;;;;1999.90;999.90;;;10.10;99.90;;;;;;5081380;28;20090;-69
2023/03/31 07:42:41;;;;;;;1999.90;999.90;;;10.10;99.90;;;;;;5060582;28;20053;-69
2023/03/31 07:45:07;;;;;;;1999.90;999.90;;;10.00;99.90;;;;;;5042094;28;20044;-70
2023/03/31 07:47:33;;;;;;;1999.90;999.90;;;10.00;99.90;;;;;;5043586;28;20040;-70
2023/03/31 07:49:58;;;;;;;1999.90;999.90;;;10.10;99.90;;;;;;5043193;28;20103;-70
2023/03/31 07:52:24;;;;;;;1999.90;999.90;;;10.00;99.90;;;;;;5045383;28;20137;-71
2023/03/31 07:54:50;;;;;;;1999.90;999.90;;;10.00;99.90;;;;;;5046421;28;20525;-70
2023/03/31 07:57:18;;;;;;;1999.90;999.90;;;10.10;99.90;;;;;;5063669;28;20047;-70
2023/03/31 07:59:45;;;;;;;1999.90;999.90;;;10.10;99.90;;;;;;5062279;28;20076;-70
2023/03/31 08:02:15;;;;;;;1999.90;999.90;;;10.10;99.90;;;;;;5061021;28;20129;-70
2023/03/31 08:04:42;;;;;;;1999.90;999.90;;;10.10;99.90;;;;;;5061431;28;20088;-70
2023/03/31 08:07:09;;;;;;;1999.90;999.90;;;10.10;99.90;;;;;;5045754;28;20036;-71
2023/03/31 08:09:35;;;;;;;1999.90;999.90;;;10.10;99.90;;;;;;5060852;28;20052;-70
2023/03/31 08:12:01;;;;;;;1999.90;999.90;;;10.10;99.90;;;;;;5064750;28;20045;-70
2023/03/31 08:14:26;;;;;;;1999.90;999.90;;;10.10;99.90;;;;;;5061764;28;20075;-70
2023/03/31 08:16:54;;;;;;;1999.90;999.90;;;10.10;99.90;;;;;;5045082;28;20141;-70
2023/03/31 08:19:21;;;;;;;1999.90;999.90;;;10.10;99.90;;;;;;5056727;28;20452;-70
2023/03/31 08:21:46;;;;;;;1999.90;999.90;;;10.10;99.90;;;;;;5063639;28;20508;-70
2023/03/31 08:24:12;;;;;;;1999.90;999.90;;;10.10;99.90;;;;;;5045397;28;20068;-70
2023/03/31 08:26:39;;;;;;;1999.90;999.90;;;10.10;99.90;;;;;;5059589;28;20041;-70
2023/03/31 08:29:05;;;;;;;1999.90;999.90;;;10.20;99.90;;;;;;5064564;28;20495;-70
2023/03/31 08:31:31;;;;;;;1999.90;999.90;;;10.10;99.90;;;;;;5060046;28;20041;-70
2023/03/31 08:33:56;;;;;;;1999.90;999.90;;;10.20;99.90;;;;;;5058513;28;20119;-70
2023/03/31 08:36:22;;;;;;;1999.90;999.90;;;10.20;99.90;;;;;;5061856;28;20878;-70
2023/03/31 08:38:48;;;;;;;1999.90;999.90;;;10.20;99.90;;;;;;5048479;28;20040;-70
2023/03/31 08:41:33;;;;;;;1999.90;999.90;;;10.30;99.90;;;;;;5060063;28;20413;-70
2023/03/31 08:44:02;;;;;;;1999.90;999.90;;;10.30;99.90;;;;;;5064094;28;20465;-70
2023/03/31 08:46:32;;;;;;;1999.90;999.90;;;10.30;99.90;;;;;;5060030;28;20049;-70
2023/03/31 08:48:59;;;;;;;1999.90;999.90;;;10.30;99.90;;;;;;5064636;28;20040;-70
2023/03/31 08:51:35;;;;;;;1999.90;999.90;;;10.40;99.90;;;;;;5062866;28;20037;-70
2023/03/31 08:54:03;;;;;;;1999.90;999.90;;;10.40;99.90;;;;;;5062880;28;20069;-70
2023/03/31 08:56:37;;;;;;;1999.90;999.90;;;10.40;99.90;;;;;;5059905;28;20044;-70
2023/03/31 08:59:04;;;;;;;;;;;10.40;99.90;;;;;;5056186;28;20043;-70
2023/03/31 09:01:46;;;;;;;1999.90;999.90;;;10.40;99.90;;;;;;5061969;28;19920;-70
2023/03/31 09:04:27;;;;;;;1999.90;999.90;;;10.40;99.90;;;;;;5059481;28;20052;-70
2023/03/31 09:07:01;;;;;;;1999.90;999.90;;;10.50;99.90;;;;;;5045076;28;20052;-70
2023/03/31 09:09:27;;;;;;;;;;;10.50;99.90;;;;;;5063590;28;20051;-70
2023/03/31 09:11:57;;;;;;;1999.90;999.90;;;10.50;99.90;;;;;;5062356;28;19924;-70
2023/03/31 09:14:36;;;;;;;1999.90;999.90;;;10.60;99.90;;;;;;5063991;28;20037;-70
2023/03/31 09:17:23;;;;;;;1999.90;999.90;;;10.70;99.90;;;;;;5058250;28;20090;-70
2023/03/31 09:20:02;;;;;;;1999.90;999.90;;;10.70;99.90;;;;;;5061537;28;20043;-70
2023/03/31 09:22:35;;;;;;;1999.90;999.90;;;10.80;99.90;;;;;;5076135;28;20492;-70
2023/03/31 09:25:22;;;;;;;1999.90;999.90;;;10.80;99.90;;;;;;5059142;28;20044;-70
2023/03/31 09:27:51;;;;;;;1999.90;999.90;;;10.90;99.90;;;;;;5078640;28;20051;-70
2023/03/31 09:30:21;;;;;;;1999.90;999.90;;;10.90;99.90;;;;;;5064116;28;20033;-70
2023/03/31 09:32:51;;;;;;;1999.90;999.90;;;11.00;99.90;;;;;;5045786;28;20043;-70
2023/03/31 09:35:20;;;;;;;1999.90;999.90;;;11.10;99.90;;;;;;5053928;28;20036;-70
2023/03/31 09:37:46;;;;;;;1999.90;999.90;;;11.20;99.90;;;;;;5062058;28;20043;-70
2023/03/31 09:40:21;;;;;;;1999.90;999.90;;;11.30;99.90;;;;;;5073406;28;20122;-70
2023/03/31 09:42:54;;;;;;;1999.90;999.90;;;11.50;99.90;;;;;;5046474;28;20050;-70
2023/03/31 09:45:20;;;;;;;1999.90;999.90;;;11.60;99.90;;;;;;5061857;28;20502;-70
2023/03/31 09:47:50;;;;;;;1999.90;999.90;;;11.80;99.90;;;;;;5049115;28;20091;-70
2023/03/31 09:50:17;;;;;;;1999.90;999.90;;;11.90;99.90;;;;;;5065620;28;20388;-70
2023/03/31 09:52:49;;;;;;;1999.90;999.90;;;12.00;99.90;;;;;;5064170;28;20045;-70
2023/03/31 09:55:18;;;;;;;1999.90;999.90;;;11.90;99.90;;;;;;5063309;28;20040;-70
2023/03/31 09:57:43;;;;;;;1999.90;999.90;;;12.00;99.90;;;;;;5067902;28;20032;-71
2023/03/31 10:00:15;;;;;;;1999.90;999.90;;;12.00;99.90;;;;;;5063418;28;20044;-71
2023/03/31 10:03:05;;;;;;;1999.90;999.90;;;12.10;99.90;;;;;;5045975;28;20481;-70
2023/03/31 10:05:53;;;;;;;1999.90;999.90;;;12.10;99.90;;;;;;5061000;28;20131;-70
2023/03/31 10:08:37;;;;;;;1999.90;999.90;;;12.20;99.90;;;;;;5061695;28;20041;-70
2023/03/31 10:11:02;;;;;;;1999.90;999.90;;;12.10;99.90;;;;;;5048631;28;20080;-70
2023/03/31 10:13:42;;;;;;;1999.90;999.90;;;12.00;99.90;;;;;;5062013;28;20075;-70
2023/03/31 10:16:13;;;;;;;1999.90;999.90;;;11.90;99.90;;;;;;5064525;28;20036;-70
2023/03/31 10:18:42;;;;;;;1999.90;999.90;;;11.90;99.90;;;;;;5049681;28;20043;-70
2023/03/31 10:21:20;;;;;;;1999.90;999.90;;;11.80;99.90;;;;;;5064515;28;20044;-70
2023/03/31 10:23:47;;;;;;;1999.90;999.90;;;11.70;99.90;;;;;;5064200;28;20040;-70
2023/03/31 10:26:20;;;;;;;1999.90;999.90;;;11.80;99.90;;;;;;5064927;28;20094;-70
2023/03/31 10:28:51;;;;;;;1999.90;999.90;;;11.90;99.90;;;;;;5060556;28;20484;-70
2023/03/31 10:31:18;;;;;;;1999.90;999.90;;;11.90;99.90;;;;;;5060825;28;20040;-70
2023/03/31 10:33:46;;;;;;;1999.90;999.90;;;11.90;99.90;;;;;;5066319;28;20393;-70
2023/03/31 10:36:33;;;;;;;1999.90;999.90;;;11.90;99.90;;;;;;5061028;28;20500;-70
2023/03/31 10:39:07;;;;;;;1999.90;999.90;;;12.00;99.90;;;;;;5060333;28;20045;-70
2023/03/31 10:41:33;;;;;;;1999.90;999.90;;;12.10;99.90;;;;;;5079990;28;20066;-70
2023/03/31 10:44:03;;;;;;;1999.90;999.90;;;12.30;99.90;;;;;;5065424;28;20435;-70
2023/03/31 10:46:51;;;;;;;1999.90;999.90;;;12.30;99.90;;;;;;5064643;28;20047;-70
2023/03/31 10:49:24;;;;;;;1999.90;999.90;;;12.50;99.90;;;;;;5056412;28;20032;-70
2023/03/31 10:51:55;;;;;;;1999.90;999.90;;;12.60;99.90;;;;;;5064592;28;20033;-70
2023/03/31 10:54:20;;;;;;;1999.90;999.90;;;12.60;99.90;;;;;;5059520;28;20036;-71
2023/03/31 10:57:00;;;;;;;1999.90;999.90;;;12.70;99.90;;;;;;5049421;28;20055;-70
2023/03/31 10:59:57;;;;;;;1999.90;999.90;;;12.80;99.90;;;;;;5052033;28;20049;-71
2023/03/31 11:03:02;;;;;;;1999.90;999.90;;;13.00;99.90;;;;;;5037377;28;20504;-70
2023/03/31 11:05:57;;;;;;;1999.90;999.90;;;13.20;99.90;;;;;;5049046;28;20516;-70
2023/03/31 11:08:49;;;;;;;1999.90;999.90;;;13.20;99.90;;;;;;5035872;28;20127;-71
2023/03/31 11:11:49;;;;;;;1999.90;999.90;;;13.40;99.90;;;;;;5049687;28;20038;-71
2023/03/31 11:14:38;;;;;;;1999.90;999.90;;;13.50;99.90;;;;;;5049882;28;20457;-71
2023/03/31 11:17:58;;;;;;;1999.90;999.90;;;13.70;99.90;;;;;;5064359;28;20123;-71
2023/03/31 11:20:54;;;;;;;1999.90;999.90;;;13.90;99.90;;;;;;4987505;28;20461;-71
2023/03/31 11:23:23;;;;;;;1999.90;999.90;;;14.00;99.90;;;;;;5061683;28;20083;-71
2023/03/31 11:26:01;;;;;;;1999.90;999.90;;;14.20;99.90;;;;;;5058972;28;20512;-70
2023/03/31 11:28:35;;;;;;;1999.90;999.90;;;14.10;99.90;;;;;;5045399;28;20047;-71
2023/03/31 11:31:27;;;;;;;1999.90;999.90;;;13.90;99.90;;;;;;5048229;28;20067;-71
2023/03/31 11:34:08;;;;;;;1999.90;999.90;;;13.60;99.90;;;;;;5059687;28;20045;-70
2023/03/31 11:36:49;;;;;;;1999.90;999.90;;;13.60;99.90;;;;;;5064273;28;20048;-71
2023/03/31 11:39:44;;;;;;;1999.90;999.90;;;13.60;99.90;;;;;;5060309;28;20396;-70
2023/03/31 11:42:22;;;;;;;1999.90;999.90;;;13.60;99.90;;;;;;5049319;28;20056;-70
2023/03/31 11:44:55;;;;;;;1999.90;999.90;;;13.70;99.90;;;;;;5061455;28;20124;-70
2023/03/31 11:47:29;;;;;;;1999.90;999.90;;;13.60;99.90;;;;;;5046985;28;20520;-70
2023/03/31 11:49:59;;;;;;;1999.90;999.90;;;13.50;99.90;;;;;;5075756;28;20045;-70
2023/03/31 11:52:50;;;;;;;1999.90;999.90;;;13.40;99.90;;;;;;5062495;28;20037;-70
2023/03/31 11:55:17;;;;;;;1999.90;999.90;;;13.30;99.90;;;;;;5062443;28;20090;-70
2023/03/31 11:57:55;;;;;;;1999.90;999.90;;;13.10;99.90;;;;;;5063677;28;20055;-70
2023/03/31 12:00:24;;;;;;;1999.90;999.90;;;13.00;99.90;;;;;;5062584;28;20048;-70
2023/03/31 12:03:15;;;;;;;1999.90;999.90;;;12.90;99.90;;;;;;5062852;28;20036;-70
2023/03/31 12:05:55;;;;;;;1999.90;999.90;;;12.80;99.90;;;;;;5060977;28;20263;-70
2023/03/31 12:08:46;;;;;;;1999.90;999.90;;;12.70;99.90;;;;;;5073895;28;20051;-70
2023/03/31 12:11:15;;;;;;;1999.90;999.90;;;12.60;99.90;;;;;;5060840;28;20556;-70
2023/03/31 12:13:52;;;;;;;1999.90;999.90;;;12.60;99.90;;;;;;5062241;28;20518;-70
2023/03/31 12:16:38;;;;;;;1999.90;999.90;;;12.60;99.90;;;;;;5061647;28;20048;-70
2023/03/31 12:19:13;;;;;;;1999.90;999.90;;;12.60;99.90;;;;;;5065101;28;20093;-70
2023/03/31 12:21:43;;;;;;;1999.90;999.90;;;12.70;99.90;;;;;;5045522;28;20048;-70
2023/03/31 12:24:13;;;;;;;1999.90;999.90;;;12.70;99.90;;;;;;5057466;28;20441;-70
2023/03/31 12:26:38;;;;;;;1999.90;999.90;;;12.60;99.90;;;;;;5061200;28;20169;-70
2023/03/31 12:29:15;;;;;;;1999.90;999.90;;;12.70;99.90;;;;;;5063360;28;20073;-70